createdAt,value
2018-09-24T00:01:45.401Z,9.20
2018-09-24T00:04:14.104Z,9.30
2018-09-24T00:06:43.159Z,9.30
2018-09-24T00:09:12.338Z,9.30
2018-09-24T00:11:41.364Z,9.20
2018-09-24T00:14:10.294Z,9.30
2018-09-24T00:16:39.328Z,9.30
2018-09-24T00:19:08.242Z,9.20
2018-09-24T00:21:37.676Z,9.20
2018-09-24T00:24:06.574Z,9.20
2018-09-24T00:26:35.254Z,9.20
2018-09-24T00:29:03.651Z,9.20
2018-09-24T00:31:32.354Z,9.20
2018-09-24T00:34:01.138Z,9.30
2018-09-24T00:36:29.861Z,9.20
2018-09-24T00:38:58.266Z,9.20
2018-09-24T00:41:27.615Z,9.20
2018-09-24T00:43:56.748Z,9.20
2018-09-24T00:46:25.541Z,9.20
2018-09-24T00:48:54.022Z,9.20
2018-09-24T00:51:22.907Z,9.20
2018-09-24T00:53:51.726Z,9.20
2018-09-24T00:56:20.582Z,9.20
2018-09-24T00:58:50.086Z,9.20
2018-09-24T01:01:18.955Z,9.20
2018-09-24T01:03:48.103Z,9.10
2018-09-24T01:06:16.915Z,9.10
2018-09-24T01:08:46.178Z,9.10
2018-09-24T01:11:15.418Z,9.10
2018-09-24T01:13:44.313Z,9.00
2018-09-24T01:16:13.537Z,9.00
2018-09-24T01:18:42.263Z,9.00
2018-09-24T01:21:11.998Z,9.00
2018-09-24T01:23:41.217Z,9.00
2018-09-24T01:26:10.543Z,9.00
2018-09-24T01:28:39.457Z,8.90
2018-09-24T01:31:08.611Z,8.90
2018-09-24T01:33:37.838Z,8.90
2018-09-24T01:36:06.439Z,8.90
2018-09-24T01:38:35.696Z,8.90
2018-09-24T01:41:04.799Z,8.90
2018-09-24T01:43:34.040Z,8.90
2018-09-24T01:46:02.791Z,8.80
2018-09-24T01:48:31.965Z,8.90
2018-09-24T01:51:01.437Z,8.90
2018-09-24T01:53:30.328Z,8.90
2018-09-24T01:55:59.095Z,8.80
2018-09-24T01:58:29.547Z,8.80
2018-09-24T02:00:58.879Z,8.80
2018-09-24T02:03:34.600Z,8.80
2018-09-24T02:06:04.205Z,8.70
2018-09-24T02:08:32.867Z,8.70
2018-09-24T02:11:02.018Z,8.70
2018-09-24T02:13:30.913Z,8.70
2018-09-24T02:16:00.190Z,8.70
2018-09-24T02:18:29.509Z,8.70
2018-09-24T02:20:59.056Z,8.60
2018-09-24T02:23:28.195Z,8.60
2018-09-24T02:25:57.588Z,8.70
2018-09-24T02:28:29.413Z,8.60
2018-09-24T02:30:58.247Z,8.60
2018-09-24T02:33:27.519Z,8.50
2018-09-24T02:35:57.238Z,8.50
2018-09-24T02:38:26.433Z,8.50
2018-09-24T02:40:55.303Z,8.50
2018-09-24T02:43:26.106Z,8.50
2018-09-24T02:45:56.002Z,8.50
2018-09-24T02:48:25.468Z,8.50
2018-09-24T02:50:54.528Z,8.50
2018-09-24T02:53:23.685Z,8.50
2018-09-24T02:55:52.620Z,8.40
2018-09-24T02:58:22.140Z,8.40
2018-09-24T03:00:52.948Z,8.40
2018-09-24T03:03:21.900Z,8.40
2018-09-24T03:05:50.939Z,8.40
2018-09-24T03:08:21.411Z,8.30
2018-09-24T03:10:50.156Z,8.40
2018-09-24T03:13:19.197Z,8.30
2018-09-24T03:15:47.921Z,8.40
2018-09-24T03:18:17.114Z,8.30
2018-09-24T03:20:46.502Z,8.40
2018-09-24T03:23:15.730Z,8.40
2018-09-24T03:25:49.972Z,8.30
2018-09-24T03:28:19.079Z,8.30
2018-09-24T03:30:48.218Z,8.30
2018-09-24T03:33:17.300Z,8.30
2018-09-24T03:35:46.646Z,8.20
2018-09-24T03:38:16.675Z,8.20
2018-09-24T03:40:47.338Z,8.30
2018-09-24T03:43:16.451Z,8.20
2018-09-24T03:45:45.151Z,8.20
2018-09-24T03:48:14.203Z,8.20
2018-09-24T03:50:43.228Z,8.20
2018-09-24T03:53:12.304Z,8.20
2018-09-24T03:55:41.460Z,8.20
2018-09-24T03:58:10.483Z,8.20
2018-09-24T04:00:39.834Z,8.20
2018-09-24T04:03:08.876Z,8.20
2018-09-24T04:05:43.109Z,8.20
2018-09-24T04:08:17.655Z,8.20
2018-09-24T04:10:51.838Z,8.20
2018-09-24T04:13:26.103Z,8.20
2018-09-24T04:16:00.615Z,8.20
2018-09-24T04:18:34.563Z,8.10
2018-09-24T04:21:08.249Z,8.20
2018-09-24T04:23:42.665Z,8.10
2018-09-24T04:26:17.322Z,8.10
2018-09-24T04:28:51.825Z,8.10
2018-09-24T04:31:25.878Z,8.10
2018-09-24T04:34:00.087Z,8.10
2018-09-24T04:36:34.637Z,8.10
2018-09-24T04:39:08.814Z,8.10
2018-09-24T04:41:43.035Z,8.10
2018-09-24T04:44:17.105Z,8.10
2018-09-24T04:46:51.609Z,8.10
2018-09-24T04:49:25.819Z,8.10
2018-09-24T04:52:00.294Z,8.10
2018-09-24T04:54:35.082Z,8.10
2018-09-24T04:57:08.890Z,8.10
2018-09-24T04:59:43.049Z,8.00
2018-09-24T05:02:17.753Z,8.10
2018-09-24T05:04:52.287Z,8.10
2018-09-24T05:07:27.051Z,8.10
2018-09-24T05:10:01.616Z,8.10
2018-09-24T05:12:36.193Z,8.10
2018-09-24T05:15:10.292Z,8.10
2018-09-24T05:17:44.035Z,8.10
2018-09-24T05:20:18.526Z,8.10
2018-09-24T05:22:53.232Z,8.10
2018-09-24T05:25:27.707Z,8.10
2018-09-24T05:28:02.143Z,8.10
2018-09-24T05:30:36.814Z,8.20
2018-09-24T05:33:11.481Z,8.20
2018-09-24T05:35:45.969Z,8.20
2018-09-24T05:38:20.605Z,8.30
2018-09-24T05:40:55.115Z,8.30
2018-09-24T05:43:29.241Z,8.30
2018-09-24T05:46:03.683Z,8.40
2018-09-24T05:48:38.263Z,8.40
2018-09-24T05:51:12.643Z,8.40
2018-09-24T05:53:47.079Z,8.40
2018-09-24T05:56:21.529Z,8.50
2018-09-24T05:58:56.103Z,8.50
2018-09-24T06:01:30.628Z,8.60
2018-09-24T06:04:05.182Z,8.60
2018-09-24T06:06:39.872Z,8.70
2018-09-24T06:09:14.234Z,8.70
2018-09-24T06:11:49.098Z,8.80
2018-09-24T06:14:23.583Z,8.90
2018-09-24T06:16:58.138Z,9.00
2018-09-24T06:19:32.725Z,9.10
2018-09-24T06:22:07.339Z,9.20
2018-09-24T06:24:41.964Z,9.30
2018-09-24T06:27:16.531Z,9.40
2018-09-24T06:29:50.816Z,9.40
2018-09-24T06:32:25.019Z,9.50
2018-09-24T06:34:59.523Z,9.60
2018-09-24T06:37:34.023Z,9.60
2018-09-24T06:40:08.620Z,9.90
2018-09-24T06:42:43.014Z,10.10
2018-09-24T06:45:17.739Z,10.30
2018-09-24T06:47:52.248Z,10.40
2018-09-24T06:50:26.792Z,10.40
2018-09-24T06:53:01.492Z,10.50
2018-09-24T06:55:36.032Z,10.90
2018-09-24T06:58:10.337Z,11.10
2018-09-24T07:00:45.148Z,11.20
2018-09-24T07:03:19.807Z,11.00
2018-09-24T07:05:53.925Z,11.10
2018-09-24T07:08:29.191Z,11.00
2018-09-24T07:11:03.730Z,10.80
2018-09-24T07:13:38.756Z,10.70
2018-09-24T07:16:13.276Z,11.00
2018-09-24T07:18:47.671Z,11.00
2018-09-24T07:21:21.838Z,11.20
2018-09-24T07:23:56.096Z,11.50
2018-09-24T07:26:30.345Z,11.80
2018-09-24T07:29:04.943Z,11.60
2018-09-24T07:31:39.259Z,11.40
2018-09-24T07:34:14.020Z,11.30
2018-09-24T07:36:47.911Z,11.70
2018-09-24T07:39:22.535Z,12.30
2018-09-24T07:41:56.772Z,12.20
2018-09-24T07:44:31.492Z,11.90
2018-09-24T07:47:05.914Z,11.50
2018-09-24T07:49:40.056Z,11.70
2018-09-24T07:52:14.168Z,12.50
2018-09-24T07:54:48.809Z,12.40
2018-09-24T07:57:23.465Z,12.20
2018-09-24T07:59:58.065Z,12.40
2018-09-24T08:02:32.802Z,12.40
2018-09-24T08:05:06.940Z,12.10
2018-09-24T08:07:41.137Z,12.30
2018-09-24T08:10:15.196Z,12.40
2018-09-24T08:12:49.810Z,12.00
2018-09-24T08:15:24.543Z,11.90
2018-09-24T08:17:58.642Z,11.90
2018-09-24T08:20:32.865Z,12.30
2018-09-24T08:23:07.460Z,12.50
2018-09-24T08:25:42.067Z,12.70
2018-09-24T08:28:16.705Z,12.90
2018-09-24T08:30:51.174Z,12.40
2018-09-24T08:33:25.934Z,12.70
2018-09-24T08:36:00.587Z,12.90
2018-09-24T08:38:34.912Z,12.80
2018-09-24T08:41:09.164Z,13.20
2018-09-24T08:43:43.456Z,13.70
2018-09-24T08:46:17.645Z,13.90
2018-09-24T08:48:51.984Z,14.50
2018-09-24T08:51:26.633Z,14.70
2018-09-24T08:54:01.215Z,13.80
2018-09-24T08:56:35.730Z,13.40
2018-09-24T08:59:10.018Z,13.00
2018-09-24T09:01:44.179Z,13.10
2018-09-24T09:04:18.905Z,14.00
2018-09-24T09:06:53.455Z,14.00
2018-09-24T09:09:28.030Z,13.70
2018-09-24T09:12:02.459Z,13.30
2018-09-24T09:14:36.605Z,12.80
2018-09-24T09:17:11.469Z,13.10
2018-09-24T09:19:47.049Z,13.50
2018-09-24T09:22:21.362Z,13.20
2018-09-24T09:24:55.525Z,13.00
2018-09-24T09:27:29.942Z,13.00
2018-09-24T09:30:04.121Z,13.00
2018-09-24T09:32:38.825Z,12.80
2018-09-24T09:35:12.716Z,13.20
2018-09-24T09:37:47.203Z,13.10
2018-09-24T09:40:21.303Z,13.10
2018-09-24T09:42:55.539Z,12.90
2018-09-24T09:45:30.290Z,13.00
2018-09-24T09:48:03.958Z,13.50
2018-09-24T09:50:38.617Z,13.70
2018-09-24T09:53:12.886Z,14.50
2018-09-24T09:55:47.430Z,14.20
2018-09-24T09:58:21.883Z,14.10
2018-09-24T10:00:56.627Z,13.90
2018-09-24T10:03:30.738Z,13.70
2018-09-24T10:06:04.718Z,13.60
2018-09-24T10:08:39.189Z,13.30
2018-09-24T10:11:13.057Z,13.20
2018-09-24T10:13:47.878Z,13.20
2018-09-24T10:16:22.059Z,13.20
2018-09-24T10:18:57.374Z,13.40
2018-09-24T10:21:31.342Z,14.00
2018-09-24T10:24:05.826Z,14.20
2018-09-24T10:26:40.391Z,14.30
2018-09-24T10:29:14.937Z,14.00
2018-09-24T10:31:49.526Z,14.10
2018-09-24T10:34:23.907Z,14.60
2018-09-24T10:36:58.554Z,14.10
2018-09-24T10:39:33.128Z,14.10
2018-09-24T10:42:08.137Z,14.20
2018-09-24T10:44:42.578Z,14.00
2018-09-24T10:47:17.073Z,13.90
2018-09-24T10:49:51.502Z,14.70
2018-09-24T10:52:25.476Z,16.00
2018-09-24T10:54:59.753Z,17.10
2018-09-24T10:57:33.750Z,17.40
2018-09-24T11:00:08.210Z,17.50
2018-09-24T11:02:42.497Z,16.80
2018-09-24T11:05:16.919Z,16.90
2018-09-24T11:07:51.160Z,17.80
2018-09-24T11:10:25.450Z,17.80
2018-09-24T11:12:59.851Z,17.50
2018-09-24T11:15:34.067Z,17.90
2018-09-24T11:18:08.180Z,18.60
2018-09-24T11:20:42.677Z,19.30
2018-09-24T11:23:16.621Z,19.40
2018-09-24T11:25:50.881Z,17.40
2018-09-24T11:28:25.100Z,16.40
2018-09-24T11:30:58.851Z,17.10
2018-09-24T11:33:33.122Z,18.60
2018-09-24T11:36:07.413Z,19.70
2018-09-24T11:38:41.247Z,18.90
2018-09-24T11:41:15.944Z,18.30
2018-09-24T11:43:49.937Z,17.80
2018-09-24T11:46:24.387Z,17.00
2018-09-24T11:48:58.868Z,15.90
2018-09-24T11:51:33.484Z,15.30
2018-09-24T11:54:08.041Z,14.20
2018-09-24T11:56:42.768Z,12.70
2018-09-24T11:59:17.430Z,12.20
2018-09-24T12:01:51.483Z,12.00
2018-09-24T12:04:25.931Z,12.20
2018-09-24T12:07:00.434Z,12.20
2018-09-24T12:09:34.805Z,11.70
2018-09-24T12:12:09.625Z,11.30
2018-09-24T12:14:44.306Z,10.90
2018-09-24T12:17:18.808Z,10.80
2018-09-24T12:19:53.247Z,10.80
2018-09-24T12:22:27.627Z,10.90
2018-09-24T12:25:01.854Z,10.90
2018-09-24T12:27:36.522Z,11.10
2018-09-24T12:30:10.381Z,11.10
2018-09-24T12:32:44.878Z,11.20
2018-09-24T12:35:19.006Z,11.10
2018-09-24T12:37:53.522Z,10.90
2018-09-24T12:40:28.259Z,10.80
2018-09-24T12:43:02.639Z,10.70
2018-09-24T12:45:37.550Z,10.50
2018-09-24T12:48:11.512Z,10.40
2018-09-24T12:50:46.237Z,10.30
2018-09-24T12:53:20.050Z,10.10
2018-09-24T12:55:54.511Z,10.20
2018-09-24T12:58:29.037Z,10.40
2018-09-24T13:01:03.373Z,10.80
2018-09-24T13:03:37.705Z,11.90
2018-09-24T13:06:12.227Z,13.20
2018-09-24T13:08:46.539Z,15.10
2018-09-24T13:11:20.510Z,17.20
2018-09-24T13:13:54.772Z,18.30
2018-09-24T13:16:28.770Z,18.90
2018-09-24T13:19:02.946Z,19.70
2018-09-24T13:21:37.191Z,20.50
2018-09-24T13:24:10.691Z,21.50
2018-09-24T13:26:44.940Z,22.50
2018-09-24T13:29:18.873Z,22.30
2018-09-24T13:31:53.055Z,20.50
2018-09-24T13:34:27.479Z,20.70
2018-09-24T13:37:01.324Z,20.10
2018-09-24T13:39:35.272Z,19.10
2018-09-24T13:42:09.341Z,17.70
2018-09-24T13:44:43.727Z,16.30
2018-09-24T13:47:17.980Z,15.20
2018-09-24T13:49:51.587Z,14.30
2018-09-24T13:52:25.376Z,13.70
2018-09-24T13:54:59.432Z,13.90
2018-09-24T13:57:33.704Z,14.50
2018-09-24T14:00:08.111Z,14.10
2018-09-24T14:02:42.354Z,13.60
2018-09-24T14:05:16.440Z,13.10
2018-09-24T14:07:50.900Z,12.70
2018-09-24T14:10:25.799Z,12.60
2018-09-24T14:12:59.794Z,13.90
2018-09-24T14:15:34.172Z,15.60
2018-09-24T14:18:08.118Z,17.50
2018-09-24T14:20:42.426Z,18.80
2018-09-24T14:23:16.796Z,18.90
2018-09-24T14:25:51.104Z,17.60
2018-09-24T14:28:25.523Z,17.00
2018-09-24T14:30:59.691Z,16.20
2018-09-24T14:33:33.945Z,15.40
2018-09-24T14:36:08.348Z,14.80
2018-09-24T14:38:42.923Z,14.30
2018-09-24T14:41:17.124Z,14.00
2018-09-24T14:43:51.551Z,13.80
2018-09-24T14:46:26.172Z,13.70
2018-09-24T14:49:00.484Z,14.30
2018-09-24T14:51:34.454Z,15.80
2018-09-24T14:54:08.462Z,16.50
2018-09-24T14:56:42.744Z,16.60
2018-09-24T14:59:17.027Z,17.00
2018-09-24T15:01:51.193Z,16.90
2018-09-24T15:04:25.474Z,16.80
2018-09-24T15:06:59.699Z,17.60
2018-09-24T15:09:34.005Z,18.30
2018-09-24T15:12:07.818Z,17.80
2018-09-24T15:14:42.207Z,17.00
2018-09-24T15:17:16.531Z,15.80
2018-09-24T15:19:50.779Z,15.10
2018-09-24T15:22:25.294Z,14.40
2018-09-24T15:24:59.567Z,13.60
2018-09-24T15:27:34.212Z,13.50
2018-09-24T15:30:08.032Z,13.10
2018-09-24T15:32:50.328Z,12.70
2018-09-24T15:35:24.837Z,12.50
2018-09-24T15:37:59.262Z,12.60
2018-09-24T15:40:33.707Z,13.20
2018-09-24T15:43:08.168Z,13.70
2018-09-24T15:45:42.631Z,14.10
2018-09-24T15:48:16.567Z,14.10
2018-09-24T15:50:50.849Z,13.80
2018-09-24T15:53:25.289Z,13.30
2018-09-24T15:55:59.720Z,13.00
2018-09-24T15:58:33.944Z,12.70
2018-09-24T16:01:08.272Z,12.60
2018-09-24T16:03:42.551Z,12.60
2018-09-24T16:06:16.486Z,12.10
2018-09-24T16:08:50.805Z,12.10
2018-09-24T16:11:25.118Z,11.90
2018-09-24T16:13:59.748Z,11.80
2018-09-24T16:16:33.975Z,11.70
2018-09-24T16:19:08.731Z,11.70
2018-09-24T16:21:42.454Z,11.60
2018-09-24T16:24:16.829Z,11.50
2018-09-24T16:26:50.981Z,11.60
2018-09-24T16:29:25.463Z,11.60
2018-09-24T16:31:59.367Z,11.60
2018-09-24T16:34:33.861Z,11.70
2018-09-24T16:37:08.588Z,11.60
2018-09-24T16:39:43.076Z,11.70
2018-09-24T16:42:17.943Z,11.70
2018-09-24T16:44:52.577Z,11.70
2018-09-24T16:47:27.593Z,11.80
2018-09-24T16:50:01.841Z,11.80
2018-09-24T16:52:36.374Z,11.80
2018-09-24T16:55:10.237Z,11.80
2018-09-24T16:57:45.082Z,11.80
2018-09-24T17:00:18.971Z,11.70
2018-09-24T17:02:53.121Z,11.70
2018-09-24T17:05:28.127Z,11.60
2018-09-24T17:08:02.712Z,11.60
2018-09-24T17:10:37.322Z,11.50
2018-09-24T17:13:11.572Z,11.40
2018-09-24T17:15:45.877Z,11.40
2018-09-24T17:18:20.381Z,11.30
2018-09-24T17:20:54.966Z,11.30
2018-09-24T17:23:29.743Z,11.30
2018-09-24T17:26:03.939Z,11.30
2018-09-24T17:28:37.906Z,11.30
2018-09-24T17:31:12.469Z,11.30
2018-09-24T17:33:46.880Z,11.30
2018-09-24T17:36:21.271Z,11.30
2018-09-24T17:38:55.828Z,11.30
2018-09-24T17:41:30.099Z,11.30
2018-09-24T17:44:04.323Z,11.30
2018-09-24T17:46:38.202Z,11.20
2018-09-24T17:49:12.147Z,11.20
2018-09-24T17:51:46.038Z,11.20
2018-09-24T17:54:20.773Z,11.10
2018-09-24T17:56:55.149Z,11.10
2018-09-24T17:59:29.919Z,11.00
2018-09-24T18:02:03.988Z,11.00
2018-09-24T18:04:38.543Z,11.00
2018-09-24T18:07:12.624Z,11.00
2018-09-24T18:09:47.141Z,11.00
2018-09-24T18:12:21.731Z,11.00
2018-09-24T18:14:56.446Z,11.00
2018-09-24T18:17:31.055Z,10.90
2018-09-24T18:20:05.679Z,10.80
2018-09-24T18:22:40.251Z,10.80
2018-09-24T18:25:14.642Z,10.70
2018-09-24T18:27:49.287Z,10.70
2018-09-24T18:30:23.635Z,10.60
2018-09-24T18:32:57.867Z,10.50
2018-09-24T18:35:32.439Z,10.60
2018-09-24T18:38:06.478Z,10.60
2018-09-24T18:40:41.163Z,10.50
2018-09-24T18:43:15.739Z,10.50
2018-09-24T18:45:49.902Z,10.50
2018-09-24T18:48:24.272Z,10.40
2018-09-24T18:50:58.609Z,10.30
2018-09-24T18:53:32.815Z,10.30
2018-09-24T18:56:07.432Z,10.20
2018-09-24T18:58:41.285Z,10.20
2018-09-24T19:01:15.541Z,10.10
2018-09-24T19:03:50.135Z,10.10
2018-09-24T19:06:24.277Z,10.10
2018-09-24T19:08:59.043Z,10.10
2018-09-24T19:11:32.887Z,10.10
2018-09-24T19:14:07.559Z,10.00
2018-09-24T19:16:42.080Z,10.10
2018-09-24T19:19:16.580Z,10.10
2018-09-24T19:21:51.259Z,10.10
2018-09-24T19:24:25.576Z,10.10
2018-09-24T19:26:59.978Z,10.00
2018-09-24T19:29:34.344Z,10.10
2018-09-24T19:32:08.754Z,10.10
2018-09-24T19:34:43.198Z,10.10
2018-09-24T19:37:18.008Z,10.10
2018-09-24T19:39:52.346Z,10.10
2018-09-24T19:42:26.810Z,10.10
2018-09-24T19:45:01.492Z,10.00
2018-09-24T19:47:36.204Z,9.90
2018-09-24T19:50:10.046Z,9.90
2018-09-24T19:52:44.688Z,9.80
2018-09-24T19:55:19.220Z,9.80
2018-09-24T19:57:53.864Z,9.70
2018-09-24T20:00:27.699Z,9.60
2018-09-24T20:03:02.361Z,9.60
2018-09-24T20:05:36.948Z,9.60
2018-09-24T20:08:11.195Z,9.50
2018-09-24T20:10:45.364Z,9.50
2018-09-24T20:13:20.175Z,9.40
2018-09-24T20:15:54.503Z,9.40
2018-09-24T20:18:29.044Z,9.30
2018-09-24T20:21:03.635Z,9.30
2018-09-24T20:23:38.155Z,9.30
2018-09-24T20:26:13.009Z,9.30
2018-09-24T20:28:46.967Z,9.30
2018-09-24T20:31:21.434Z,9.20
2018-09-24T20:33:55.948Z,9.20
2018-09-24T20:36:30.728Z,9.20
2018-09-24T20:39:05.091Z,9.20
2018-09-24T20:41:39.244Z,9.20
2018-09-24T20:44:14.410Z,9.10
2018-09-24T20:46:48.963Z,9.00
2018-09-24T20:49:23.432Z,9.00
2018-09-24T20:51:58.081Z,9.00
2018-09-24T20:54:32.477Z,9.00
2018-09-24T20:57:06.625Z,8.90
2018-09-24T20:59:41.415Z,8.90
2018-09-24T21:02:15.499Z,8.90
2018-09-24T21:04:49.646Z,8.90
2018-09-24T21:07:24.136Z,8.90
2018-09-24T21:09:58.701Z,8.80
2018-09-24T21:12:32.939Z,8.80
2018-09-24T21:15:07.835Z,8.90
2018-09-24T21:17:42.357Z,8.90
2018-09-24T21:20:16.713Z,8.90
2018-09-24T21:22:50.842Z,8.90
2018-09-24T21:25:24.912Z,8.90
2018-09-24T21:28:00.781Z,8.80
2018-09-24T21:30:35.136Z,8.80
2018-09-24T21:33:09.712Z,8.80
2018-09-24T21:35:44.040Z,8.80
2018-09-24T21:38:18.619Z,8.80
2018-09-24T21:40:52.737Z,8.80
2018-09-24T21:43:27.647Z,8.80
2018-09-24T21:46:02.387Z,8.90
2018-09-24T21:48:36.762Z,8.80
2018-09-24T21:51:10.961Z,8.70
2018-09-24T21:53:45.231Z,8.70
2018-09-24T21:56:19.536Z,8.70
2018-09-24T21:58:54.109Z,8.60
2018-09-24T22:01:28.306Z,8.60
2018-09-24T22:04:02.996Z,8.60
2018-09-24T22:06:37.501Z,8.50
2018-09-24T22:09:13.498Z,8.50
2018-09-24T22:11:48.237Z,8.50
2018-09-24T22:14:22.500Z,8.50
2018-09-24T22:16:56.967Z,8.40
2018-09-24T22:19:31.019Z,8.40
2018-09-24T22:22:05.306Z,8.40
2018-09-24T22:24:39.195Z,8.40
2018-09-24T22:27:13.868Z,8.40
2018-09-24T22:29:48.493Z,8.30
2018-09-24T22:32:23.084Z,8.30
2018-09-24T22:34:56.973Z,8.30
2018-09-24T22:37:31.143Z,8.30
2018-09-24T22:40:05.547Z,8.20
2018-09-24T22:42:39.759Z,8.20
2018-09-24T22:45:14.065Z,8.10
2018-09-24T22:47:48.372Z,8.10
2018-09-24T22:50:22.886Z,8.10
2018-09-24T22:52:57.339Z,8.00
2018-09-24T22:55:31.562Z,8.00
2018-09-24T22:58:05.695Z,8.00
2018-09-24T23:00:39.886Z,8.00
2018-09-24T23:03:14.192Z,7.90
2018-09-24T23:05:48.976Z,7.90
2018-09-24T23:08:22.871Z,7.90
2018-09-24T23:10:57.982Z,7.80
2018-09-24T23:13:32.194Z,7.90
2018-09-24T23:16:06.449Z,7.80
2018-09-24T23:18:41.218Z,7.80
2018-09-24T23:21:15.150Z,7.80
2018-09-24T23:23:49.282Z,7.80
2018-09-24T23:26:23.941Z,7.80
2018-09-24T23:28:58.841Z,7.80
2018-09-24T23:31:33.473Z,7.80
2018-09-24T23:34:08.026Z,7.70
2018-09-24T23:36:42.074Z,7.70
2018-09-24T23:39:17.191Z,7.70
2018-09-24T23:41:51.825Z,7.70
2018-09-24T23:44:26.443Z,7.70
2018-09-24T23:47:00.897Z,7.60
2018-09-24T23:49:36.350Z,7.60
2018-09-24T23:52:10.623Z,7.60
2018-09-24T23:54:45.228Z,7.60
2018-09-24T23:57:19.532Z,7.50
